createdAt,value
2023-05-19T00:01:20.345Z,20.02
2023-05-19T00:16:25.419Z,20.00
2023-05-19T00:31:27.430Z,19.97
2023-05-19T00:46:29.208Z,19.94
2023-05-19T01:01:31.123Z,19.91
2023-05-19T01:16:43.004Z,19.87
2023-05-19T01:31:46.453Z,19.85
2023-05-19T01:46:50.922Z,19.83
2023-05-19T02:01:55.487Z,19.80
2023-05-19T02:16:58.366Z,19.77
2023-05-19T02:32:01.525Z,19.75
2023-05-19T02:47:03.475Z,19.73
2023-05-19T03:02:05.362Z,19.69
2023-05-19T03:17:07.260Z,19.67
2023-05-19T03:32:09.027Z,19.65
2023-05-19T03:47:10.771Z,19.63
2023-05-19T04:02:12.496Z,19.62
2023-05-19T04:17:14.438Z,19.59
2023-05-19T04:32:16.346Z,19.59
2023-05-19T04:47:18.101Z,19.58
2023-05-19T05:02:20.018Z,19.60
2023-05-19T05:17:22.131Z,19.60
2023-05-19T05:32:24.138Z,19.60
2023-05-19T05:47:26.198Z,19.62
2023-05-19T06:02:28.050Z,19.63
2023-05-19T06:17:29.878Z,19.64
2023-05-19T06:32:31.668Z,19.67
2023-05-19T06:47:33.508Z,19.66
2023-05-19T07:02:35.305Z,19.67
2023-05-19T07:17:37.100Z,19.70
2023-05-19T07:32:38.927Z,19.76
2023-05-19T07:47:40.735Z,19.77
2023-05-19T08:02:42.609Z,19.81
2023-05-19T08:17:44.416Z,19.82
2023-05-19T08:32:46.212Z,19.87
2023-05-19T08:47:51.207Z,19.90
2023-05-19T09:03:00.208Z,19.93
2023-05-19T09:18:10.986Z,19.97
2023-05-19T09:33:17.738Z,20.03
2023-05-19T09:48:19.540Z,20.08
2023-05-19T10:03:22.985Z,20.11
2023-05-19T10:18:26.429Z,20.16
2023-05-19T10:33:55.632Z,20.22
2023-05-19T10:48:57.522Z,20.26
2023-05-19T11:04:10.820Z,20.30
2023-05-19T11:19:27.457Z,20.36
2023-05-19T11:34:31.095Z,20.41
2023-05-19T11:49:33.163Z,20.42
2023-05-19T12:04:34.942Z,20.49
2023-05-19T12:19:36.930Z,20.51
2023-05-19T12:34:39.553Z,20.56
2023-05-19T12:50:00.942Z,20.61
2023-05-19T13:05:03.837Z,20.65
2023-05-19T13:20:06.340Z,20.67
2023-05-19T13:35:09.686Z,20.69
2023-05-19T13:50:11.503Z,20.69
2023-05-19T14:05:13.247Z,20.73
2023-05-19T14:20:15.118Z,20.76
2023-05-19T14:35:16.839Z,20.77
2023-05-19T14:50:18.640Z,20.79
2023-05-19T15:05:20.881Z,20.83
2023-05-19T15:20:22.621Z,20.85
2023-05-19T15:35:24.491Z,20.87
2023-05-19T15:50:26.385Z,20.85
2023-05-19T16:05:28.124Z,20.89
2023-05-19T16:20:29.861Z,20.90
2023-05-19T16:35:31.629Z,20.92
2023-05-19T16:50:33.470Z,20.94
2023-05-19T17:05:35.330Z,20.95
2023-05-19T17:20:37.073Z,20.95
2023-05-19T17:35:41.714Z,20.96
2023-05-19T17:50:43.420Z,20.96
2023-05-19T18:05:45.345Z,20.94
2023-05-19T18:20:47.211Z,20.93
2023-05-19T18:35:48.950Z,20.90
2023-05-19T18:50:50.697Z,20.88
2023-05-19T19:06:00.018Z,20.87
2023-05-19T19:21:02.084Z,20.85
2023-05-19T19:36:04.118Z,20.82
2023-05-19T19:51:05.811Z,20.79
2023-05-19T20:06:07.501Z,20.77
2023-05-19T20:21:09.241Z,20.77
2023-05-19T20:36:11.042Z,20.74
2023-05-19T20:51:12.768Z,20.71
2023-05-19T21:06:14.640Z,20.67
2023-05-19T21:21:16.428Z,20.64
2023-05-19T21:36:18.185Z,20.60
2023-05-19T21:51:19.985Z,20.58
2023-05-19T22:06:21.715Z,20.54
2023-05-19T22:21:23.520Z,20.53
2023-05-19T22:36:25.244Z,20.49
2023-05-19T22:51:27.028Z,20.46
2023-05-19T23:06:28.782Z,20.44
2023-05-19T23:21:31.010Z,20.42
2023-05-19T23:36:32.736Z,20.39
2023-05-19T23:51:34.482Z,20.37
